Etusivu
METAR-TAF:

METAR-TAF

Lentoasemat :

Vesisaari, Norja

Leveyspiiri: 70-04N, Pituuspiiri: 029-51E, korkeus merenpinnasta: 3 m

Tämänhetkinen sää

Tämä raportti tehtiin 51 minuuttia sitten, kello 11.50 UTC
Tuuli 16 kn lännestä
Lämpötila 6°C
Kosteus 56%
Ilmanpaine 1000 hPa
Näkyvyys 10 km tai enemmän
Muutamia pilviä 3000 ft:n korkeudessa

METAR: ENVD 251150Z 26016KT 9999 FEW030 06/M02 Q1000

Aika: 14:41 (12:41 UTC)

Sääennuste

Tämä raportti tehtiin 1 tunti ja 41 minuuttia sitten, kello 11.00 UTC
Ennuste voimassa 25. päivästä klo 12 UTC - 25. päivään klo 21 UTC
Tuuli 18 kn lännestä/lounaasta
Näkyvyys 10 km tai enemmän
Muutamia pilviä 2000 ft:n korkeudessa
Hajanaisia pilviä 4000 ft:n korkeudessa
Tulossa
25. päivästä klo 12 UTC - 25. päivään klo 14 UTC
Tuuli 8 kn etelästä/lounaasta

TAF: ENVD 251100Z 2512/2521 24018KT 9999 FEW020 SCT040 BECMG 2512/2514 20008KT

Säähavainnot ja -ennusteet yli 4000 lentoasemalta (METAR- ja TAF-raportit).

Käytössä olevat sääasemat on merkitty karttaan keltaisilla ja punaisilla pisteillä.

Aseta hiiri pisteen päälle nähdäksesi sääaseman nimen.

Klikkaa sitten nähdäksesi säähavainnot ja -ennusteet.

Kartan vaihtaminen: klikkaa mustalla rastilla varustettuja vihreitä pisteitä, niin voit zoomata sisään; viivalla varustettua vihreää pistettä, niin voit zoomata ulos tai vihreitä nuolia, niin pääset viereisille kartoille.


METAR-TAF: